createdAt,value
2019-01-06T00:00:15.349Z,1009.3
2019-01-06T00:03:15.915Z,1009.2
2019-01-06T00:06:15.122Z,1009.2
2019-01-06T00:09:15.599Z,1009.2
2019-01-06T00:12:15.701Z,1009.3
2019-01-06T00:15:15.025Z,1009.4
2019-01-06T00:18:15.209Z,1009.4
2019-01-06T00:21:15.893Z,1009.4
2019-01-06T00:24:15.174Z,1009.4
2019-01-06T00:27:15.423Z,1009.3
2019-01-06T00:30:15.466Z,1009.4
2019-01-06T00:33:15.919Z,1009.3
2019-01-06T00:36:15.190Z,1009.4
2019-01-06T00:39:16.007Z,1009.4
2019-01-06T00:42:15.055Z,1009.5
2019-01-06T00:45:20.337Z,1009.4
2019-01-06T00:48:15.872Z,1009.5
2019-01-06T00:51:15.216Z,1009.5
2019-01-06T00:54:15.742Z,1009.5
2019-01-06T00:57:15.499Z,1009.6
2019-01-06T01:00:15.194Z,1009.5
2019-01-06T01:03:15.211Z,1009.5
2019-01-06T01:06:15.341Z,1009.5
2019-01-06T01:09:15.621Z,1009.5
2019-01-06T01:12:15.759Z,1009.5
2019-01-06T01:15:15.861Z,1009.6
2019-01-06T01:18:15.615Z,1009.7
2019-01-06T01:21:15.447Z,1009.6
2019-01-06T01:24:15.772Z,1009.7
2019-01-06T01:27:15.415Z,1009.8
2019-01-06T01:30:15.838Z,1009.8
2019-01-06T01:33:15.188Z,1009.8
2019-01-06T01:36:15.493Z,1009.8
2019-01-06T01:39:15.726Z,1009.8
2019-01-06T01:42:15.715Z,1009.9
2019-01-06T01:45:15.926Z,1009.9
2019-01-06T01:48:15.099Z,1010.0
2019-01-06T01:51:15.100Z,1010.1
2019-01-06T01:54:15.489Z,1010.1
2019-01-06T01:57:15.855Z,1010.1
2019-01-06T02:00:15.775Z,1010.1
2019-01-06T02:03:15.581Z,1010.0
2019-01-06T02:06:15.454Z,1010.0
2019-01-06T02:09:15.324Z,1010.0
2019-01-06T02:12:15.810Z,1010.0
2019-01-06T02:15:15.216Z,1009.9
2019-01-06T02:18:15.489Z,1009.9
2019-01-06T02:21:15.123Z,1010.0
2019-01-06T02:24:16.269Z,1009.9
2019-01-06T02:27:15.197Z,1009.9
2019-01-06T02:30:15.533Z,1010.0
2019-01-06T02:33:15.769Z,1009.9
2019-01-06T02:36:16.293Z,1010.0
2019-01-06T02:39:15.499Z,1010.0
2019-01-06T02:42:15.231Z,1010.0
2019-01-06T02:45:15.404Z,1009.9
2019-01-06T02:48:15.432Z,1009.9
2019-01-06T02:51:16.647Z,1010.0
2019-01-06T02:54:15.249Z,1010.0
2019-01-06T02:57:15.283Z,1010.0
2019-01-06T03:00:15.465Z,1010.1
2019-01-06T03:03:15.306Z,1010.0
2019-01-06T03:06:16.164Z,1010.0
2019-01-06T03:09:15.673Z,1010.0
2019-01-06T03:12:15.544Z,1010.1
2019-01-06T03:15:15.168Z,1010.0
2019-01-06T03:18:16.455Z,1010.0
2019-01-06T03:21:15.253Z,1010.0
2019-01-06T03:24:15.248Z,1009.9
2019-01-06T03:27:16.588Z,1009.8
2019-01-06T03:30:16.589Z,1009.8
2019-01-06T03:33:15.241Z,1009.8
2019-01-06T03:36:16.309Z,1009.9
2019-01-06T03:39:15.624Z,1009.8
2019-01-06T03:42:15.554Z,1009.8
2019-01-06T03:45:15.779Z,1009.8
2019-01-06T03:48:15.856Z,1009.7
2019-01-06T03:51:15.660Z,1009.6
2019-01-06T03:54:15.327Z,1009.6
2019-01-06T03:57:15.966Z,1009.6
2019-01-06T04:00:15.056Z,1009.6
2019-01-06T04:03:15.851Z,1009.7
2019-01-06T04:06:15.685Z,1009.7
2019-01-06T04:09:15.804Z,1009.7
2019-01-06T04:12:15.361Z,1009.7
2019-01-06T04:15:16.058Z,1009.6
2019-01-06T04:18:15.194Z,1009.5
2019-01-06T04:21:15.793Z,1009.5
2019-01-06T04:24:15.981Z,1009.7
2019-01-06T04:27:16.045Z,1009.6
2019-01-06T04:30:15.321Z,1009.5
2019-01-06T04:33:15.320Z,1009.5
2019-01-06T04:36:15.524Z,1009.5
2019-01-06T04:39:14.980Z,1009.6
2019-01-06T04:42:15.631Z,1009.5
2019-01-06T04:45:15.806Z,1009.5
2019-01-06T04:48:15.329Z,1009.6
2019-01-06T04:51:15.095Z,1009.6
2019-01-06T04:54:15.027Z,1009.6
2019-01-06T04:57:15.178Z,1009.7
2019-01-06T05:00:15.432Z,1009.6
2019-01-06T05:03:15.915Z,1009.6
2019-01-06T05:06:15.567Z,1009.7
2019-01-06T05:09:15.071Z,1009.7
2019-01-06T05:12:15.257Z,1009.7
2019-01-06T05:15:15.207Z,1009.7
2019-01-06T05:18:15.772Z,1009.7
2019-01-06T05:21:15.438Z,1009.7
2019-01-06T05:24:15.036Z,1009.8
2019-01-06T05:27:15.267Z,1009.9
2019-01-06T05:30:15.139Z,1009.8
2019-01-06T05:33:15.728Z,1009.8
2019-01-06T05:36:15.471Z,1009.8
2019-01-06T05:39:14.986Z,1009.9
2019-01-06T05:42:15.664Z,1009.8
2019-01-06T05:45:15.401Z,1009.8
2019-01-06T05:48:15.871Z,1009.8
2019-01-06T05:51:15.024Z,1009.8
2019-01-06T05:54:15.544Z,1009.8
2019-01-06T05:57:15.081Z,1009.8
2019-01-06T06:00:15.595Z,1009.8
2019-01-06T06:03:15.657Z,1009.9
2019-01-06T06:06:15.812Z,1010.0
2019-01-06T06:09:15.667Z,1009.9
2019-01-06T06:12:15.368Z,1009.9
2019-01-06T06:15:15.357Z,1009.9
2019-01-06T06:18:15.789Z,1009.9
2019-01-06T06:21:15.794Z,1010.0
2019-01-06T06:24:15.690Z,1010.0
2019-01-06T06:27:15.710Z,1010.0
2019-01-06T06:30:15.428Z,1010.0
2019-01-06T06:33:15.259Z,1010.0
2019-01-06T06:36:15.899Z,1010.1
2019-01-06T06:39:15.429Z,1010.1
2019-01-06T06:42:15.551Z,1010.2
2019-01-06T06:45:15.357Z,1010.3
2019-01-06T06:48:15.960Z,1010.3
2019-01-06T06:51:15.141Z,1010.3
2019-01-06T06:54:15.455Z,1010.4
2019-01-06T06:57:15.070Z,1010.4
2019-01-06T07:00:15.250Z,1010.4
2019-01-06T07:03:15.287Z,1010.4
2019-01-06T07:06:15.128Z,1010.4
2019-01-06T07:09:15.805Z,1010.4
2019-01-06T07:12:15.063Z,1010.4
2019-01-06T07:15:15.041Z,1010.4
2019-01-06T07:18:15.197Z,1010.4
2019-01-06T07:21:15.040Z,1010.5
2019-01-06T07:24:15.924Z,1010.5
2019-01-06T07:27:15.272Z,1010.6
2019-01-06T07:30:15.309Z,1010.6
2019-01-06T07:33:15.509Z,1010.7
2019-01-06T07:36:15.744Z,1010.7
2019-01-06T07:39:15.220Z,1010.7
2019-01-06T07:42:15.199Z,1010.8
2019-01-06T07:45:15.824Z,1010.8
2019-01-06T07:48:15.773Z,1010.8
2019-01-06T07:51:15.626Z,1010.8
2019-01-06T07:54:15.041Z,1010.9
2019-01-06T07:57:15.250Z,1010.9
2019-01-06T08:00:15.707Z,1011.0
2019-01-06T08:03:15.722Z,1011.0
2019-01-06T08:06:15.948Z,1011.0
2019-01-06T08:09:15.641Z,1011.0
2019-01-06T08:12:15.296Z,1011.0
2019-01-06T08:15:15.950Z,1011.0
2019-01-06T08:18:15.087Z,1011.0
2019-01-06T08:21:15.368Z,1010.9
2019-01-06T08:24:15.523Z,1010.9
2019-01-06T08:27:15.624Z,1011.0
2019-01-06T08:30:15.812Z,1011.0
2019-01-06T08:33:15.676Z,1010.9
2019-01-06T08:36:15.102Z,1010.9
2019-01-06T08:39:15.641Z,1011.0
2019-01-06T08:42:15.741Z,1011.0
2019-01-06T08:45:15.754Z,1011.1
2019-01-06T08:48:15.872Z,1011.1
2019-01-06T08:51:15.607Z,1011.2
2019-01-06T08:54:15.369Z,1011.1
2019-01-06T08:57:15.621Z,1011.2
2019-01-06T09:00:15.841Z,1011.2
2019-01-06T09:03:15.176Z,1011.3
2019-01-06T09:06:15.276Z,1011.2
2019-01-06T09:09:15.056Z,1011.4
2019-01-06T09:12:15.611Z,1011.4
2019-01-06T09:15:15.745Z,1011.3
2019-01-06T09:18:15.799Z,1011.4
2019-01-06T09:21:15.907Z,1011.4
2019-01-06T09:24:15.170Z,1011.5
2019-01-06T09:27:15.858Z,1011.4
2019-01-06T09:30:15.020Z,1011.4
2019-01-06T09:33:15.489Z,1011.4
2019-01-06T09:36:16.009Z,1011.3
2019-01-06T09:39:15.991Z,1011.3
2019-01-06T09:42:15.575Z,1011.2
2019-01-06T09:45:15.385Z,1011.2
2019-01-06T09:48:15.265Z,1011.2
2019-01-06T09:51:15.484Z,1011.2
2019-01-06T09:54:15.908Z,1011.2
2019-01-06T09:57:15.150Z,1011.1
2019-01-06T10:00:15.391Z,1011.1
2019-01-06T10:03:15.550Z,1011.1
2019-01-06T10:06:16.357Z,1011.1
2019-01-06T10:09:19.043Z,1011.1
2019-01-06T10:12:15.376Z,1011.1
2019-01-06T10:15:16.435Z,1011.1
2019-01-06T10:18:15.627Z,1011.1
2019-01-06T10:21:16.026Z,1011.1
2019-01-06T10:24:15.139Z,1011.1
2019-01-06T10:27:15.263Z,1011.1
2019-01-06T10:30:15.740Z,1011.1
2019-01-06T10:33:15.195Z,1011.1
2019-01-06T10:36:15.797Z,1011.0
2019-01-06T10:39:14.984Z,1011.0
2019-01-06T10:42:15.117Z,1011.0
2019-01-06T10:45:15.303Z,1011.0
2019-01-06T10:48:15.382Z,1011.1
2019-01-06T10:51:16.016Z,1011.1
2019-01-06T10:54:16.066Z,1011.1
2019-01-06T10:57:15.722Z,1011.1
2019-01-06T11:00:15.145Z,1011.2
2019-01-06T11:03:15.577Z,1011.2
2019-01-06T11:06:15.227Z,1011.2
2019-01-06T11:09:15.404Z,1011.2
2019-01-06T11:12:15.693Z,1011.2
2019-01-06T11:15:15.571Z,1011.2
2019-01-06T11:18:15.816Z,1011.3
2019-01-06T11:21:15.779Z,1011.2
2019-01-06T11:24:15.284Z,1011.2
2019-01-06T11:27:15.657Z,1011.3
2019-01-06T11:30:15.090Z,1011.3
2019-01-06T11:33:15.071Z,1011.3
2019-01-06T11:36:15.201Z,1011.3
2019-01-06T11:39:15.871Z,1011.2
2019-01-06T11:42:15.425Z,1011.2
2019-01-06T11:45:15.520Z,1011.2
2019-01-06T11:48:15.210Z,1011.2
2019-01-06T11:51:15.392Z,1011.2
2019-01-06T11:54:15.555Z,1011.2
2019-01-06T11:57:15.905Z,1011.2
2019-01-06T12:00:15.476Z,1011.1
2019-01-06T12:03:15.632Z,1011.1
2019-01-06T12:06:15.378Z,1011.1
2019-01-06T12:09:15.809Z,1011.0
2019-01-06T12:12:21.318Z,1011.1
2019-01-06T12:15:15.943Z,1011.1
2019-01-06T12:18:15.435Z,1011.1
2019-01-06T12:21:15.206Z,1011.0
2019-01-06T12:24:15.583Z,1011.0
2019-01-06T12:27:15.938Z,1011.0
2019-01-06T12:30:15.622Z,1011.0
2019-01-06T12:33:15.394Z,1011.0
2019-01-06T12:36:15.431Z,1011.0
2019-01-06T12:39:15.054Z,1011.0
2019-01-06T12:42:15.608Z,1011.0
2019-01-06T12:45:16.055Z,1011.0
2019-01-06T12:48:15.186Z,1011.0
2019-01-06T12:51:15.872Z,1011.1
2019-01-06T12:54:15.722Z,1011.1
2019-01-06T12:57:15.808Z,1011.1
2019-01-06T13:00:15.361Z,1011.1
2019-01-06T13:03:15.717Z,1011.2
2019-01-06T13:06:15.795Z,1011.2
2019-01-06T13:09:16.033Z,1011.1
2019-01-06T13:12:15.704Z,1011.3
2019-01-06T13:15:15.915Z,1011.3
2019-01-06T13:18:15.963Z,1011.4
2019-01-06T13:21:15.514Z,1011.5
2019-01-06T13:24:15.169Z,1011.5
2019-01-06T13:27:15.812Z,1011.5
2019-01-06T13:30:16.680Z,1011.5
2019-01-06T13:33:17.831Z,1011.6
2019-01-06T13:36:16.005Z,1011.6
2019-01-06T13:39:15.788Z,1011.7
2019-01-06T13:42:17.893Z,1011.8
2019-01-06T13:45:15.163Z,1011.8
2019-01-06T13:48:16.284Z,1011.8
2019-01-06T13:51:15.661Z,1011.9
2019-01-06T13:54:57.594Z,1011.9
2019-01-06T13:57:15.244Z,1011.9
2019-01-06T14:00:15.172Z,1011.9
2019-01-06T14:03:15.521Z,1011.9
2019-01-06T14:06:15.179Z,1012.0
2019-01-06T14:09:15.278Z,1012.0
2019-01-06T14:12:15.455Z,1012.0
2019-01-06T14:15:15.800Z,1012.1
2019-01-06T14:18:15.165Z,1012.1
2019-01-06T14:21:15.391Z,1012.2
2019-01-06T14:24:15.723Z,1012.2
2019-01-06T14:27:15.057Z,1012.2
2019-01-06T14:30:16.098Z,1012.2
2019-01-06T14:33:15.543Z,1012.2
2019-01-06T14:36:15.320Z,1012.2
2019-01-06T14:39:15.250Z,1012.2
2019-01-06T14:42:15.519Z,1012.3
2019-01-06T14:45:15.132Z,1012.3
2019-01-06T14:48:15.642Z,1012.3
2019-01-06T14:51:15.446Z,1012.4
2019-01-06T14:54:15.040Z,1012.3
2019-01-06T14:57:16.082Z,1012.3
2019-01-06T15:00:16.141Z,1012.3
2019-01-06T15:03:15.679Z,1012.3
2019-01-06T15:06:15.889Z,1012.3
2019-01-06T15:09:15.660Z,1012.3
2019-01-06T15:12:15.555Z,1012.3
2019-01-06T15:15:15.516Z,1012.4
2019-01-06T15:18:15.391Z,1012.4
2019-01-06T15:21:15.559Z,1012.5
2019-01-06T15:24:15.039Z,1012.4
2019-01-06T15:27:15.674Z,1012.5
2019-01-06T15:30:15.399Z,1012.5
2019-01-06T15:33:15.726Z,1012.5
2019-01-06T15:36:15.096Z,1012.5
2019-01-06T15:39:15.442Z,1012.5
2019-01-06T15:42:15.854Z,1012.6
2019-01-06T15:45:15.237Z,1012.5
2019-01-06T15:48:28.324Z,1012.6
2019-01-06T15:51:15.018Z,1012.7
2019-01-06T15:54:15.301Z,1012.7
2019-01-06T15:57:15.516Z,1012.7
2019-01-06T16:00:15.209Z,1012.7
2019-01-06T16:03:15.238Z,1012.8
2019-01-06T16:06:15.029Z,1012.8
2019-01-06T16:09:15.269Z,1012.8
2019-01-06T16:12:15.237Z,1012.8
2019-01-06T16:15:15.155Z,1012.8
2019-01-06T16:18:15.785Z,1012.8
2019-01-06T16:21:15.954Z,1012.8
2019-01-06T16:24:15.634Z,1012.8
2019-01-06T16:27:15.781Z,1012.7
2019-01-06T16:30:16.016Z,1012.7
2019-01-06T16:33:15.761Z,1012.7
2019-01-06T16:36:30.242Z,1012.7
2019-01-06T16:43:08.724Z,1012.6
2019-01-06T16:48:19.645Z,1012.7
2019-01-06T16:51:15.488Z,1012.8
2019-01-06T16:54:15.302Z,1012.9
2019-01-06T16:57:14.979Z,1012.8
2019-01-06T17:00:15.202Z,1012.8
2019-01-06T17:03:15.208Z,1012.9
2019-01-06T17:06:15.868Z,1012.9
2019-01-06T17:09:15.690Z,1012.8
2019-01-06T17:12:15.661Z,1012.8
2019-01-06T17:15:16.053Z,1012.8
2019-01-06T17:18:15.217Z,1012.8
2019-01-06T17:21:15.542Z,1012.9
2019-01-06T17:24:15.894Z,1012.9
2019-01-06T17:27:15.900Z,1012.9
2019-01-06T17:30:15.470Z,1012.9
2019-01-06T17:33:15.789Z,1012.8
2019-01-06T17:36:15.632Z,1012.8
2019-01-06T17:39:15.701Z,1012.8
2019-01-06T17:42:15.843Z,1012.9
2019-01-06T17:45:15.140Z,1012.9
2019-01-06T17:48:15.520Z,1012.9
2019-01-06T17:51:15.117Z,1012.9
2019-01-06T17:54:15.554Z,1012.9
2019-01-06T17:57:15.766Z,1012.9
2019-01-06T18:00:15.214Z,1013.0
2019-01-06T18:03:16.004Z,1013.0
2019-01-06T18:06:16.046Z,1012.9
2019-01-06T18:09:15.870Z,1012.9
2019-01-06T18:12:15.603Z,1013.0
2019-01-06T18:15:15.747Z,1013.1
2019-01-06T18:18:15.758Z,1013.1
2019-01-06T18:21:15.036Z,1013.1
2019-01-06T18:24:15.102Z,1013.1
2019-01-06T18:27:14.984Z,1013.1
2019-01-06T18:30:14.997Z,1013.1
2019-01-06T18:33:14.896Z,1013.1
2019-01-06T18:36:15.202Z,1013.1
2019-01-06T18:39:15.257Z,1013.1
2019-01-06T18:42:15.729Z,1013.1
2019-01-06T18:45:15.134Z,1013.1
2019-01-06T18:48:14.849Z,1013.1
2019-01-06T18:51:38.440Z,1013.1
2019-01-06T18:54:15.183Z,1013.1
2019-01-06T18:57:15.390Z,1013.1
2019-01-06T19:00:15.328Z,1013.1
2019-01-06T19:03:15.431Z,1013.2
2019-01-06T19:06:15.022Z,1013.2
2019-01-06T19:09:15.253Z,1013.1
2019-01-06T19:12:15.335Z,1013.1
2019-01-06T19:15:15.376Z,1013.2
2019-01-06T19:18:15.560Z,1013.2
2019-01-06T19:21:15.342Z,1013.2
2019-01-06T19:24:16.042Z,1013.3
2019-01-06T19:27:15.387Z,1013.3
2019-01-06T19:30:15.099Z,1013.3
2019-01-06T19:33:15.039Z,1013.3
2019-01-06T19:36:15.717Z,1013.3
2019-01-06T19:39:15.168Z,1013.4
2019-01-06T19:42:15.516Z,1013.4
2019-01-06T19:45:15.076Z,1013.4
2019-01-06T19:48:15.399Z,1013.4
2019-01-06T19:51:15.360Z,1013.4
2019-01-06T19:54:15.141Z,1013.4
2019-01-06T19:57:15.982Z,1013.5
2019-01-06T20:00:15.939Z,1013.5
2019-01-06T20:03:15.035Z,1013.5
2019-01-06T20:06:15.214Z,1013.5
2019-01-06T20:09:15.342Z,1013.5
2019-01-06T20:12:15.849Z,1013.5
2019-01-06T20:15:15.150Z,1013.5
2019-01-06T20:18:16.074Z,1013.4
2019-01-06T20:21:16.138Z,1013.5
2019-01-06T20:24:16.230Z,1013.5
2019-01-06T20:27:15.665Z,1013.4
2019-01-06T20:30:15.962Z,1013.5
2019-01-06T20:33:15.542Z,1013.5
2019-01-06T20:36:16.902Z,1013.6
2019-01-06T20:39:15.512Z,1013.5
2019-01-06T20:42:15.526Z,1013.5
2019-01-06T20:45:15.731Z,1013.6
2019-01-06T20:48:15.066Z,1013.5
2019-01-06T20:51:16.003Z,1013.5
2019-01-06T20:54:16.538Z,1013.6
2019-01-06T20:57:15.689Z,1013.6
2019-01-06T21:00:16.491Z,1013.5
2019-01-06T21:03:15.183Z,1013.5
2019-01-06T21:06:15.886Z,1013.5
2019-01-06T21:09:16.070Z,1013.6
2019-01-06T21:12:15.413Z,1013.6
2019-01-06T21:15:21.317Z,1013.6
2019-01-06T21:18:15.092Z,1013.6
2019-01-06T21:21:15.512Z,1013.6
2019-01-06T21:24:15.182Z,1013.6
2019-01-06T21:27:15.427Z,1013.6
2019-01-06T21:30:15.587Z,1013.6
2019-01-06T21:33:15.319Z,1013.6
2019-01-06T21:36:15.039Z,1013.7
2019-01-06T21:39:15.902Z,1013.7
2019-01-06T21:42:15.147Z,1013.6
2019-01-06T21:45:15.171Z,1013.6
2019-01-06T21:48:15.291Z,1013.7
2019-01-06T21:51:15.639Z,1013.7
2019-01-06T21:54:15.199Z,1013.7
2019-01-06T21:57:15.405Z,1013.6
2019-01-06T22:00:15.854Z,1013.6
2019-01-06T22:03:15.162Z,1013.6
2019-01-06T22:06:15.791Z,1013.6
2019-01-06T22:09:15.109Z,1013.6
2019-01-06T22:12:15.437Z,1013.6
2019-01-06T22:15:15.131Z,1013.6
2019-01-06T22:18:15.812Z,1013.6
2019-01-06T22:21:15.138Z,1013.6
2019-01-06T22:24:15.078Z,1013.6
2019-01-06T22:27:15.689Z,1013.6
2019-01-06T22:30:15.725Z,1013.6
2019-01-06T22:33:15.059Z,1013.6
2019-01-06T22:36:15.353Z,1013.6
2019-01-06T22:39:15.372Z,1013.6
2019-01-06T22:42:15.664Z,1013.6
2019-01-06T22:45:15.461Z,1013.5
2019-01-06T22:48:15.323Z,1013.5
2019-01-06T22:51:15.540Z,1013.5
2019-01-06T22:54:15.909Z,1013.5
2019-01-06T22:57:15.254Z,1013.6
2019-01-06T23:00:15.818Z,1013.5
2019-01-06T23:03:15.919Z,1013.5
2019-01-06T23:06:16.049Z,1013.5
2019-01-06T23:09:16.514Z,1013.5
2019-01-06T23:12:15.911Z,1013.5
2019-01-06T23:15:15.900Z,1013.5
2019-01-06T23:18:15.155Z,1013.5
2019-01-06T23:21:15.938Z,1013.6
2019-01-06T23:24:16.105Z,1013.6
2019-01-06T23:27:16.217Z,1013.6
2019-01-06T23:30:16.087Z,1013.6
2019-01-06T23:33:16.161Z,1013.6
2019-01-06T23:36:15.383Z,1013.6
2019-01-06T23:39:15.163Z,1013.6
2019-01-06T23:42:15.227Z,1013.6
2019-01-06T23:45:15.585Z,1013.6
2019-01-06T23:48:15.716Z,1013.5
2019-01-06T23:51:15.875Z,1013.5
2019-01-06T23:54:15.523Z,1013.5
2019-01-06T23:57:15.458Z,1013.5
